Qualifying Results

MXGP
Pos Nr Rider Nat. Fed. Bike Time laps Diff. First Diff. Prev. Bestlaptime in lap Speed
1 67 Gajser, Tim SLO AMZS Honda 27:02.312 10 0:00.000 0:00.000 2:26.581 3 47.8
2 1 Paulin, Gautier FRA MCM Husqvarna 27:07.728 10 0:05.416 0:05.416 2:26.697 5 47.8
3 13 Cairoli, Antonio ITA FMI KTM 27:09.153 10 0:06.841 0:01.425 2:27.299 5 47.6
4 19 Anstie, Max GBR ACU Husqvarna 27:23.798 10 0:21.486 0:14.645 2:27.719 5 47.5
5 10 Van Horebeek, Jeremy BEL FMB Yamaha 27:34.064 10 0:31.752 0:10.266 2:27.845 4 47.4
6 31 Bobryshev, Evgeny RUS MUL Honda 27:37.806 10 0:35.494 0:03.742 2:28.705 3 47.2
7 22 Ferris, Dean AUS MA Yamaha 27:40.730 10 0:38.418 0:02.924 2:28.788 1 47.1
8 16 Tonus, Arnaud SUI FMS Yamaha 27:41.518 10 0:39.206 0:00.788 2:28.074 3 47.4
9 7 Seely, Cole USA AMA Honda 27:44.580 10 0:42.268 0:03.062 2:29.491 6 46.9
10 4 Coldenhoff, Glenn NED KNMV KTM 27:45.184 10 0:42.872 0:00.604 2:30.068 3 46.7
11 61 Goncalves, Rui POR FMP Husqvarna 28:22.212 10 1:19.900 0:37.028 2:32.221 7 46.1
12 49 Cooper, Cody NZL MNZ Honda 28:32.201 10 1:29.889 0:09.989 2:33.971 2 45.5
13 25 Ratsep, Priit EST EMF Honda 28:34.801 10 1:32.489 0:02.600 2:32.291 1 46
14 28 Facciotti, Colton CAN CMA Honda 28:39.670 10 1:37.358 0:04.869 2:32.870 2 45.9
15 37 Bengtsson, Filip SWE SVEMO KTM 28:49.016 10 1:46.704 0:09.346 2:36.197 8 44.9
16 34 Butron, Jose ESP RFME KTM 28:51.745 10 1:49.433 0:02.729 2:36.237 7 44.9
17 46 Neugebauer, Filip CZE DMSB Kawasaki 28:52.078 10 1:49.766 0:00.333 2:35.366 2 45.1
18 76 Starling, Justin PUR AMA Kawasaki 29:11.600 10 2:09.288 0:19.522 2:36.847 3 44.7
19 58 Edmonds, Stuart IRL MCUI TM 29:17.334 10 2:15.022 0:05.734 2:38.522 5 44.2
20 82 Simko, Tomas SVK SMF Suzuki 29:34.612 10 2:32.300 0:17.278 2:39.320 3 44
21 94 Macuks, Toms LAT LAMSF KTM 29:40.893 10 2:38.581 0:06.281 2:39.854 2 43.9
22 70 Lima, Marcello BRA CBM Kawasaki 29:44.364 10 2:42.052 0:03.471 2:38.688 5 44.2
23 85 Matikainen, Juuso FIN SML Husqvarna 27:19.370 9 1 lap 1 lap 2:40.563 1 43.7
24 121 Poli, Joaquin ARG CAMOD Honda 27:39.133 9 1 lap 0:19.763 2:42.018 6 43.3
25 106 Birgisson, Ingvi Bjorn ISL MSI KTM 27:52.703 9 1 lap 0:13.570 2:44.294 4 42.7
26 79 Szoke, Mark HUN MAMS KTM 28:02.869 9 1 lap 0:10.166 2:45.198 3 42.4
27 118 Hakon Engan, Karlsen NOR NMF Suzuki 28:05.180 9 1 lap 0:02.311 2:44.103 1 42.7
28 55 Jazdauskas, Domantas LTU LMSF Yamaha 28:30.543 9 1 lap 0:25.363 2:49.102 2 41.5
29 91 Martinac, Janko CRO HMS Yamaha 29:36.147 9 1 lap 1:05.604 2:51.882 2 40.8
30 40 Larsen, Nikolaj DEN DMU KTM 23:30.101 8 2 laps 1 lap 2:35.220 4 45.2
31 97 Asmanov, Dmytro UKR FMU Yamaha 24:23.835 8 2 laps 0:53.734 2:41.952 2 43.3
32 115 Hallgren, Ben THA FMSCT Yamaha 25:17.319 8 2 laps 0:53.484 2:47.209 5 41.9
33 103 Iliopoulos, Georgios GRE AMOTOE KTM 28:22.228 8 2 laps 3:04.909 3:00.663 1 38.8
34 109 Tabouraing, Eric LUX MUL Kawasaki 29:24.237 8 2 laps 1:02.009 3:10.900 2 36.7
35 112 Harel, Tomer ISR MEMSI KTM 29:31.086 8 2 laps 0:06.849 3:11.733 1 36.6
36 64 Nagl, Maximilian GER DMSB Husqvarna 9:57.166 3 7 laps 5 laps 2:29.350 3 47
37 73 Raynard, Anthony RSA MSA Husqvarna 8:19.049 2 8 laps 1 lap 2:45.573 1 42.3
38 88 Wysocki, Tomasz POL PZM KTM 6:38.234 1 9 laps 1 lap 4:03.236 1 28.8
MX2
Pos Nr Rider Nat. Fed. Bike Time laps Diff. First Diff. Prev. Bestlaptime in lap Speed
1 8 Osborne, Zachary USA AMA Husqvarna 27:26.409 10 0:00.000 0:00.000 2:27.408 8 47.6
2 23 Lawrence, Hunter AUS MA Suzuki 27:27.538 10 0:01.129 0:01.129 2:28.995 4 47.1
3 5 Bogers, Brian NED KNMV KTM 27:50.578 10 0:24.169 0:23.040 2:31.296 1 46.3
4 35 Prado Garcia, Jorge ESP RFME KTM 27:51.768 10 0:25.359 0:01.190 2:30.760 3 46.5
5 41 Olsen, Thomas Kjer DEN DMU Husqvarna 27:53.713 10 0:27.304 0:01.945 2:30.512 4 46.6
6 77 Sanayei, Darian PUR ACU Kawasaki 27:56.676 10 0:30.267 0:02.963 2:30.116 10 46.7
7 20 Searle, Tommy GBR ACU Kawasaki 28:10.140 10 0:43.731 0:13.464 2:30.758 3 46.5
8 2 Charlier, Christophe FRA FFM Husqvarna 28:12.743 10 0:46.334 0:02.603 2:31.921 3 46.2
9 17 Guillod, Valentin SUI FMS Honda 28:39.382 10 1:12.973 0:26.639 2:34.582 3 45.4
10 26 Kullas, Harri EST EMF Husqvarna 28:40.405 10 1:13.996 0:01.023 2:34.754 4 45.3
11 29 Maffenbeier, Shawn CAN CMA Yamaha 28:41.200 10 1:14.791 0:00.795 2:34.960 4 45.3
12 65 Jacobi, Henry GER DMSB Husqvarna 28:42.253 10 1:15.844 0:01.053 2:35.538 8 45.1
13 14 Cervellin, Michele ITA FMI Honda 28:52.719 10 1:26.310 0:10.466 2:34.297 2 45.4
14 59 Barr, Martin IRL MCUI Honda 28:53.326 10 1:26.917 0:00.607 2:35.976 2 45
15 62 Alberto, Paulo POR FMP Honda 28:55.689 10 1:29.280 0:02.363 2:37.324 10 44.6
16 38 Östlund, Alvin SWE SVEMO Yamaha 28:56.608 10 1:30.199 0:00.919 2:35.949 2 45
17 95 Sabulis, Karlis LAT LAMSF Yamaha 28:57.179 10 1:30.770 0:00.571 2:35.882 2 45
18 11 Van doninck, Brent BEL FMB Yamaha 28:59.055 10 1:32.646 0:01.876 2:33.943 2 45.6
19 47 Smitka, Petr CZE ACCR KTM 28:59.521 10 1:33.112 0:00.466 2:35.767 10 45
20 119 Horgmo, Kevin NOR NMF KTM 29:17.614 10 1:51.205 0:18.093 2:36.865 4 44.7
21 83 Sikyna, Richard SVK SMF KTM 29:18.036 10 1:51.627 0:00.422 2:37.181 2 44.6
22 92 Crnkovic, Luka CRO HMS Yamaha 29:48.194 10 2:21.785 0:30.158 2:40.584 4 43.7
23 50 Natzke, Josiah NZL ACU KTM 30:12.809 10 2:46.400 0:24.615 2:35.497 2 45.1
24 32 Mikhaylov, Evgeny RUS MFR Suzuki 30:16.474 10 2:50.065 0:03.665 2:40.970 5 43.6
25 89 Chetnicki, Gabriel POL PZM KTM 30:51.473 10 3:25.064 0:34.999 2:40.846 4 43.6
26 86 Savaste, Kim FIN SML KTM 27:29.056 9 1 lap 1 lap 2:39.929 4 43.8
27 98 Tarasov, Volodymyr UKR FMU KTM 27:44.014 9 1 lap 0:14.958 2:44.327 5 42.7
28 122 Luzzardi, Juan Pablo ARG CAMOD KTM 27:44.763 9 1 lap 0:00.749 2:43.520 2 42.9
29 74 Fitz-Gerald, Kerim RSA MSA KTM 27:46.076 9 1 lap 0:01.313 2:45.393 5 42.4
30 80 Tompa, Krisztian HUN MAMS Yamaha 27:52.163 9 1 lap 0:06.087 2:46.022 2 42.2
31 56 Karka, Dovydas LTU LMSF KTM 28:12.208 9 1 lap 0:20.045 2:43.575 2 42.9
32 68 Pancar, Jan SLO AMZS Yamaha 28:21.859 9 1 lap 0:09.651 2:41.119 3 43.5
33 104 Touratzidis, Ioannis GRE AMOTOE Yamaha 28:50.845 9 1 lap 0:28.986 2:51.425 3 40.9
34 71 Santos, Fabio BRA CBM Yamaha 24:14.245 8 2 laps 1 lap 2:40.222 3 43.8
35 116 Potaton, Kritsapa THA FMSCT Yamaha 28:20.780 8 2 laps 4:06.535 3:00.310 3 38.9
36 110 Lux, Billy LUX MUL Honda 30:47.908 8 2 laps 2:27.128 2:59.753 1 39
37 107 Gudmundsson, Andri ISL NMF Honda 14:00.286 4 6 laps 4 laps 2:46.183 2 42.2
38 113 Maya, Dan ISR MEMSI Kawasaki 2:53.968 0 10 laps 4 laps 0:00.000 0
 Open
Pos Nr Rider Nat. Fed. Bike Time laps Diff. First Diff. Prev. Bestlaptime in lap Speed
1 6 Herlings, Jeffrey NED KNMV KTM 26:40.776 10 0:00.000 0:00.000 2:24.810 3 48.4
2 3 Febvre, Romain FRA FFM Yamaha 27:09.445 10 0:28.669 0:28.669 2:24.709 2 48.5
3 18 Seewer, Jeremy SUI FMS Suzuki 27:16.629 10 0:35.853 0:07.184 2:26.402 3 47.9
4 24 Gibbs, Kirk AUS MA KTM 27:24.176 10 0:43.400 0:07.547 2:28.878 3 47.1
5 21 Wilson, Dean GBR AMA Husqvarna 27:26.050 10 0:45.274 0:01.874 2:28.368 4 47.3
6 12 Strijbos, Kevin BEL FMB Suzuki 27:40.357 10 0:59.581 0:14.307 2:26.991 2 47.7
7 9 Covington, Thomas USA MUL Husqvarna 27:46.530 10 1:05.754 0:06.173 2:28.440 1 47.2
8 60 Irwin, Graeme IRL MCUI Suzuki 27:50.331 10 1:09.555 0:03.801 2:30.479 3 46.6
9 27 Leok, Tanel EST EMF Husqvarna 27:53.499 10 1:12.723 0:03.168 2:31.054 4 46.4
10 15 Lupino, Alessandro ITA FMI Honda 28:07.964 10 1:27.188 0:14.465 2:30.870 3 46.5
11 66 Ullrich, Dennis GER DMSB KTM 28:17.170 10 1:36.394 0:09.206 2:31.918 2 46.2
12 39 Noren, Fredrik SWE AMA Honda 28:29.280 10 1:48.504 0:12.110 2:33.194 3 45.8
13 42 Olsen, Stefan Kjer DEN DMU Kawasaki 28:40.939 10 2:00.163 0:11.659 2:34.098 2 45.5
14 30 Medaglia, Tyler CAN CMA Honda 28:50.119 10 2:09.343 0:09.180 2:35.243 4 45.2
15 78 Weltin, Marshal PUR AMA Kawasaki 28:52.205 10 2:11.429 0:02.086 2:36.610 5 44.8
16 48 Romancik, Jaromir CZE ACCR KTM 29:01.692 10 2:20.916 0:09.487 2:36.390 2 44.8
17 51 Harwood, Hamish NZL MNZ KTM 29:07.508 10 2:26.732 0:05.816 2:36.413 2 44.8
18 36 Larranaga Olano, Iker ESP RFME Husqvarna 29:20.478 10 2:39.702 0:12.970 2:36.896 5 44.7
19 75 Bradshaw, Neville RSA ACU Suzuki 29:24.244 10 2:43.468 0:03.766 2:37.324 3 44.6
20 63 Basaula, Hugo POR FMP Kawasaki 26:48.658 9 1 lap 1 lap 2:37.407 1 44.5
21 84 Kohut, Tomas SVK SMF KTM 26:57.741 9 1 lap 0:09.083 2:40.009 2 43.8
22 33 Baranov, Ivan RUS MFR Suzuki 27:04.029 9 1 lap 0:06.288 2:40.469 1 43.7
23 105 Kritikos, Emmanouil GRE AMOTOE Yamaha 27:05.579 9 1 lap 0:01.550 2:41.311 3 43.5
24 120 Sander-Michelsen, Agard NOR NMF TM 27:06.123 9 1 lap 0:00.544 2:40.960 6 43.6
25 69 Irt, Peter SLO AMZS Yamaha 27:17.825 9 1 lap 0:11.702 2:41.897 3 43.3
26 99 Morozov, Roman UKR FMU Yamaha 27:20.571 9 1 lap 0:02.746 2:40.885 3 43.6
27 108 Reynisson, Eythor ISL MSI Kawasaki 27:22.573 9 1 lap 0:02.002 2:39.312 1 44
28 123 Felipe, Jose Gerardo ARG CAMOD Kawasaki 27:23.931 9 1 lap 0:01.358 2:41.908 3 43.3
29 90 Staszkiewicz, Szymon POL PZM KTM 27:25.182 9 1 lap 0:01.251 2:42.762 1 43.1
30 93 Kelava, Matija CRO HMS KTM 27:47.535 9 1 lap 0:22.353 2:41.958 2 43.3
31 96 Drevinskis, Kristers LAT LAMSF KTM 27:48.234 9 1 lap 0:00.699 2:42.895 5 43
32 72 Lima, Eduardo BRA CBM Kawasaki 28:21.073 9 1 lap 0:32.839 2:43.366 1 42.9
33 81 Firtosvari, Gabor HUN MAMS KTM 28:47.385 9 1 lap 0:26.312 2:45.997 2 42.2
34 57 Milevicius, Arnas LTU LMSF Yamaha 29:16.825 9 1 lap 0:29.440 2:50.686 1 41.1
35 111 Frank, Björn LUX MUL Honda 29:34.869 9 1 lap 0:18.044 2:50.064 3 41.2
36 114 Karmi, Ziv ISR MEMSI KTM 28:11.334 8 2 laps 1 lap 3:01.613 1 38.6
37 87 Haavisto, Jere FIN SML KTM 9:27.187 2 8 laps 6 laps 2:37.017 1 44.7
38 117 Romphan, Chaiyan THA FMSCT Yamaha 0:00.000 -1 11 laps 3 laps 0:00.000 0
Nations Qualification
Pos Country Points Race Nr Name Fed. Bike Class
Countries admitted to the Motocross of Nations races

1 France 4  
2 3 FEBVRE, Romain FFM Yamaha Open
2 1 PAULIN, Gautier MCM Husqvarna MXGP
(8) 2 CHARLIER, Christophe FFM Husqvarna MX2

2 The Netherlands 4  
1 6 HERLINGS, Jeffrey KNMV KTM Open
3 5 BOGERS, Brian KNMV KTM MX2
(10) 4 COLDENHOFF, Glenn KNMV KTM MXGP

3 Australia 6  
2 23 LAWRENCE, Hunter MA Suzuki MX2
4 24 GIBBS, Kirk MA KTM Open
(7) 22 FERRIS, Dean MA Yamaha MXGP

4 USA 8  
1 8 OSBORNE, Zachary AMA Husqvarna MX2
7 9 COVINGTON, Thomas MUL Husqvarna Open
(9) 7 SEELY, Cole AMA Honda MXGP

5 Great Britain 9  
4 19 ANSTIE, Max ACU Husqvarna MXGP
5 21 WILSON, Dean AMA Husqvarna Open
(7) 20 SEARLE, Tommy ACU Kawasaki MX2

6 Switzerland 11  
3 18 SEEWER, Jeremy FMS Suzuki Open
8 16 TONUS, Arnaud FMS Yamaha MXGP
(9) 17 GUILLOD, Valentin FMS Honda MX2

7 Belgium 11  
5 10 VAN HOREBEEK, Jeremy FMB Yamaha MXGP
6 12 STRIJBOS, Kevin FMB Suzuki Open
(18) 11 VAN DONINCK, Brent FMB Yamaha MX2

8 Italy 13  
3 13 CAIROLI, Antonio FMI KTM MXGP
10 15 LUPINO, Alessandro FMI Honda Open
(13) 14 CERVELLIN, Michele FMI Honda MX2

9 Denmark 18  
5 41 OLSEN, Thomas Kjer DMU Husqvarna MX2
13 42 OLSEN, Stefan Kjer DMU Kawasaki Open
(30) 40 LARSEN, Nikolaj DMU KTM MXGP

10 Estonia 19  
9 27 LEOK, Tanel EMF Husqvarna Open
10 26 KULLAS, Harri EMF Husqvarna MX2
(13) 25 RATSEP, Priit EMF Honda MXGP

11 Spain 20  
4 35 PRADO GARCIA, Jorge RFME KTM MX2
16 34 BUTRON, Jose RFME KTM MXGP
(18) 36 LARRANAGA OLANO, Iker RFME Husqvarna Open

12 Puerto Rico 21  
6 77 SANAYEI, Darian ACU Kawasaki MX2
15 78 WELTIN, Marshal AMA Kawasaki Open
(18) 76 STARLING, Justin AMA Kawasaki MXGP

13 Ireland 22  
8 60 IRWIN, Graeme MCUI Suzuki Open
14 59 BARR, Martin MCUI Honda MX2
(19) 58 EDMONDS, Stuart MCUI TM MXGP

14 Germany 23  
11 66 ULLRICH, Dennis DMSB KTM Open
12 65 JACOBI, Henry DMSB Husqvarna MX2
(36) 64 NAGL, Maximilian DMSB Husqvarna MXGP

15 Canada 25  
11 29 MAFFENBEIER, Shawn CMA Yamaha MX2
14 30 MEDAGLIA, Tyler CMA Honda Open
(14) 28 FACCIOTTI, Colton CMA Honda MXGP

16 Portugal 26  
11 61 GONCALVES, Rui FMP Husqvarna MXGP
15 62 ALBERTO, Paulo FMP Honda MX2
(20) 63 BASAULA, Hugo FMP Kawasaki Open

17 Slovenia 26  
1 67 GAJSER, Tim AMZS Honda MXGP
25 69 IRT, Peter AMZS Yamaha Open
(32) 68 PANCAR, Jan AMZS Yamaha MX2

18 Sweden 27  
12 39 NOREN, Fredrik AMA Honda Open
15 37 BENGTSSON, Filip SVEMO KTM MXGP
(16) 38 ÖSTLUND, Alvin SVEMO Yamaha MX2

19 Russia 28  
6 31 BOBRYSHEV, Evgeny MUL Honda MXGP
22 33 BARANOV, Ivan MFR Suzuki Open
(24) 32 MIKHAYLOV, Evgeny MFR Suzuki MX2
Countries admitted to the B-Final

20 New Zealand 29  
12 49 COOPER, Cody MNZ Honda MXGP
17 51 HARWOOD, Hamish MNZ KTM Open
(23) 50 NATZKE, Josiah ACU KTM MX2

21 Czech Republic 33  
16 48 ROMANCIK, Jaromir ACCR KTM Open
17 46 NEUGEBAUER, Filip DMSB Kawasaki MXGP
(19) 47 SMITKA, Petr ACCR KTM MX2

22 Latvia 38  
17 95 SABULIS, Karlis LAMSF Yamaha MX2
21 94 MACUKS, Toms LAMSF KTM MXGP
(31) 96 DREVINSKIS, Kristers LAMSF KTM Open

23 Slovakia 41  
20 82 SIMKO, Tomas SMF Suzuki MXGP
21 84 KOHUT, Tomas SMF KTM Open
(21) 83 SIKYNA, Richard SMF KTM MX2

24 Norway 44  
20 119 HORGMO, Kevin NMF KTM MX2
24 120 SANDER-MICHELSEN, Agard NMF TM Open
(27) 118 HAKON ENGAN, Karlsen NMF Suzuki MXGP

25 Rep. of South Africa 48  
19 75 BRADSHAW, Neville ACU Suzuki Open
29 74 FITZ-GERALD, Kerim MSA KTM MX2
(37) 73 RAYNARD, Anthony MSA Husqvarna MXGP

26 Finland 49  
23 85 MATIKAINEN, Juuso SML Husqvarna MXGP
26 86 SAVASTE, Kim SML KTM MX2
(37) 87 HAAVISTO, Jere SML KTM Open

27 Croatia 51  
22 92 CRNKOVIC, Luka HMS Yamaha MX2
29 91 MARTINAC, Janko HMS Yamaha MXGP
(30) 93 KELAVA, Matija HMS KTM Open

28 Argentina 52  
24 121 POLI, Joaquin CAMOD Honda MXGP
28 123 FELIPE, Jose Gerardo CAMOD Kawasaki Open
(28) 122 LUZZARDI, Juan Pablo CAMOD KTM MX2

29 Iceland 52  
25 106 BIRGISSON, Ingvi Bjorn MSI KTM MXGP
27 108 REYNISSON, Eythor MSI Kawasaki Open
(37) 107 GUDMUNDSSON, Andri NMF Honda MX2

30 Ukraine 53  
26 99 MOROZOV, Roman FMU Yamaha Open
27 98 TARASOV, Volodymyr FMU KTM MX2
(31) 97 ASMANOV, Dmytro FMU Yamaha MXGP

31 Brazil 54  
22 70 LIMA, Marcello CBM Kawasaki MXGP
32 72 LIMA, Eduardo CBM Kawasaki Open
(34) 71 SANTOS, Fabio CBM Yamaha MX2
Countries admitted to the C-Final

32 Poland 54  
25 89 CHETNICKI, Gabriel PZM KTM MX2
29 90 STASZKIEWICZ, Szymon PZM KTM Open
(38) 88 WYSOCKI, Tomasz PZM KTM MXGP

33 Hungary 56  
26 79 SZOKE, Mark MAMS KTM MXGP
30 80 TOMPA, Krisztian MAMS Yamaha MX2
(33) 81 FIRTOSVARI, Gabor MAMS KTM Open

34 Greece 56  
23 105 KRITIKOS, Emmanouil AMOTOE Yamaha Open
33 104 TOURATZIDIS, Ioannis AMOTOE Yamaha MX2
(33) 103 ILIOPOULOS, Georgios AMOTOE KTM MXGP

35 Lithuania 59  
28 55 JAZDAUSKAS, Domantas LMSF Yamaha MXGP
31 56 KARKA, Dovydas LMSF KTM MX2
(34) 57 MILEVICIUS, Arnas LMSF Yamaha Open

36 Thailand 67  
32 115 HALLGREN, Ben FMSCT Yamaha MXGP
35 116 POTATON, Kritsapa FMSCT Yamaha MX2
(38) 117 ROMPHAN, Chaiyan FMSCT Yamaha Open

37 Luxembourg 69  
34 109 TABOURAING, Eric MUL Kawasaki MXGP
35 111 FRANK, Björn MUL Honda Open
(36) 110 LUX, Billy MUL Honda MX2

38 Israel 71  
35 112 HAREL, Tomer MEMSI KTM MXGP
36 114 KARMI, Ziv MEMSI KTM Open
(38) 113 MAYA, Dan MEMSI Kawasaki MX2